sensor_id;sensor_type;location;lat;lon;timestamp;pressure;altitude;pressure_sealevel;temperature;humidity
64616;BME280;51027;42.162;24.754;2023-02-28T00:00:34;100281.03;;;9.86;86.22
64616;BME280;51027;42.162;24.754;2023-02-28T00:03:00;100286.06;;;9.95;85.84
64616;BME280;51027;42.162;24.754;2023-02-28T00:05:27;100278.50;;;9.82;86.17
64616;BME280;51027;42.162;24.754;2023-02-28T00:07:53;100281.41;;;9.72;86.64
64616;BME280;51027;42.162;24.754;2023-02-28T00:10:25;100289.25;;;9.73;86.52
64616;BME280;51027;42.162;24.754;2023-02-28T00:12:53;100296.88;;;9.84;86.11
64616;BME280;51027;42.162;24.754;2023-02-28T00:15:19;100278.56;;;9.79;85.88
64616;BME280;51027;42.162;24.754;2023-02-28T00:17:44;100296.13;;;9.79;86.23
64616;BME280;51027;42.162;24.754;2023-02-28T00:20:11;100290.66;;;9.87;85.56
64616;BME280;51027;42.162;24.754;2023-02-28T00:22:38;100269.91;;;9.76;85.79
64616;BME280;51027;42.162;24.754;2023-02-28T00:25:05;100288.75;;;9.93;85.33
64616;BME280;51027;42.162;24.754;2023-02-28T00:27:32;100284.44;;;9.89;85.65
64616;BME280;51027;42.162;24.754;2023-02-28T00:29:57;100276.25;;;10.00;84.85
64616;BME280;51027;42.162;24.754;2023-02-28T00:32:23;100291.81;;;10.09;84.65
64616;BME280;51027;42.162;24.754;2023-02-28T00:34:48;100292.63;;;10.11;84.28
64616;BME280;51027;42.162;24.754;2023-02-28T00:37:13;100269.16;;;10.03;84.55
64616;BME280;51027;42.162;24.754;2023-02-28T00:39:39;100277.66;;;10.13;84.46
64616;BME280;51027;42.162;24.754;2023-02-28T00:42:06;100269.22;;;10.00;84.95
64616;BME280;51027;42.162;24.754;2023-02-28T00:44:32;100274.69;;;9.94;85.56
64616;BME280;51027;42.162;24.754;2023-02-28T00:46:58;100279.84;;;9.97;85.48
64616;BME280;51027;42.162;24.754;2023-02-28T00:49:25;100270.22;;;9.96;85.29
64616;BME280;51027;42.162;24.754;2023-02-28T00:51:51;100278.81;;;10.03;85.40
64616;BME280;51027;42.162;24.754;2023-02-28T00:54:17;100281.06;;;10.17;84.92
64616;BME280;51027;42.162;24.754;2023-02-28T00:56:42;100286.16;;;10.24;84.03
64616;BME280;51027;42.162;24.754;2023-02-28T00:59:08;100278.13;;;10.29;83.90
64616;BME280;51027;42.162;24.754;2023-02-28T01:01:34;100278.25;;;10.24;83.96
64616;BME280;51027;42.162;24.754;2023-02-28T01:03:59;100285.34;;;10.22;84.26
64616;BME280;51027;42.162;24.754;2023-02-28T01:06:25;100291.47;;;10.23;84.07
64616;BME280;51027;42.162;24.754;2023-02-28T01:08:50;100301.22;;;10.18;84.17
64616;BME280;51027;42.162;24.754;2023-02-28T01:11:16;100290.69;;;10.18;83.76
64616;BME280;51027;42.162;24.754;2023-02-28T01:13:43;100310.03;;;10.17;83.92
64616;BME280;51027;42.162;24.754;2023-02-28T01:16:09;100303.75;;;10.21;84.20
64616;BME280;51027;42.162;24.754;2023-02-28T01:18:35;100304.81;;;10.15;84.55
64616;BME280;51027;42.162;24.754;2023-02-28T01:21:09;100300.50;;;10.11;84.33
64616;BME280;51027;42.162;24.754;2023-02-28T01:23:35;100297.16;;;10.06;84.33
64616;BME280;51027;42.162;24.754;2023-02-28T01:26:12;100317.00;;;10.18;84.56
64616;BME280;51027;42.162;24.754;2023-02-28T01:28:39;100315.38;;;10.14;84.20
64616;BME280;51027;42.162;24.754;2023-02-28T01:31:04;100311.78;;;10.16;84.21
64616;BME280;51027;42.162;24.754;2023-02-28T01:33:31;100313.38;;;10.23;83.30
64616;BME280;51027;42.162;24.754;2023-02-28T01:36:01;100311.53;;;10.27;82.97
64616;BME280;51027;42.162;24.754;2023-02-28T01:38:28;100299.38;;;10.23;82.94
64616;BME280;51027;42.162;24.754;2023-02-28T01:40:54;100263.94;;;10.02;82.43
64616;BME280;51027;42.162;24.754;2023-02-28T01:43:28;100321.81;;;10.36;82.50
64616;BME280;51027;42.162;24.754;2023-02-28T01:45:55;100335.53;;;10.47;82.47
64616;BME280;51027;42.162;24.754;2023-02-28T01:48:27;100342.50;;;10.48;82.68
64616;BME280;51027;42.162;24.754;2023-02-28T01:50:59;100343.38;;;10.49;82.46
64616;BME280;51027;42.162;24.754;2023-02-28T01:53:37;100354.41;;;10.61;81.86
64616;BME280;51027;42.162;24.754;2023-02-28T01:56:07;100357.91;;;10.62;81.38
64616;BME280;51027;42.162;24.754;2023-02-28T01:58:34;100352.66;;;10.62;81.62
64616;BME280;51027;42.162;24.754;2023-02-28T02:00:59;100337.44;;;10.42;81.84
64616;BME280;51027;42.162;24.754;2023-02-28T02:03:25;100365.03;;;10.27;82.95
64616;BME280;51027;42.162;24.754;2023-02-28T02:05:50;100371.34;;;10.22;83.51
64616;BME280;51027;42.162;24.754;2023-02-28T02:08:20;100381.25;;;10.10;84.00
64616;BME280;51027;42.162;24.754;2023-02-28T02:10:50;100378.50;;;10.15;83.93
64616;BME280;51027;42.162;24.754;2023-02-28T02:19:08;100361.22;;;10.05;88.45
64616;BME280;51027;42.162;24.754;2023-02-28T02:30:27;100373.31;;;10.12;100.00
64616;BME280;51027;42.162;24.754;2023-02-28T02:36:06;100385.22;;;9.93;100.00
64616;BME280;51027;42.162;24.754;2023-02-28T02:38:48;100393.81;;;9.99;100.00
64616;BME280;51027;42.162;24.754;2023-02-28T02:41:33;100386.06;;;9.95;100.00
64616;BME280;51027;42.162;24.754;2023-02-28T02:46:45;100374.59;;;9.62;100.00
64616;BME280;51027;42.162;24.754;2023-02-28T02:49:20;100375.38;;;9.65;100.00
64616;BME280;51027;42.162;24.754;2023-02-28T02:51:47;100403.09;;;9.78;100.00
64616;BME280;51027;42.162;24.754;2023-02-28T02:54:19;100407.50;;;9.78;100.00
64616;BME280;51027;42.162;24.754;2023-02-28T02:56:47;100402.50;;;9.67;100.00
64616;BME280;51027;42.162;24.754;2023-02-28T02:59:16;100410.66;;;9.57;100.00
64616;BME280;51027;42.162;24.754;2023-02-28T03:01:50;100418.63;;;9.53;100.00
64616;BME280;51027;42.162;24.754;2023-02-28T03:04:20;100425.69;;;9.51;100.00
64616;BME280;51027;42.162;24.754;2023-02-28T03:06:47;100430.53;;;9.31;100.00
64616;BME280;51027;42.162;24.754;2023-02-28T03:09:12;100425.59;;;9.16;100.00
64616;BME280;51027;42.162;24.754;2023-02-28T03:11:39;100430.59;;;9.28;100.00
64616;BME280;51027;42.162;24.754;2023-02-28T03:22:28;100440.28;;;9.26;100.00
64616;BME280;51027;42.162;24.754;2023-02-28T03:25:13;100448.19;;;9.24;100.00
64616;BME280;51027;42.162;24.754;2023-02-28T03:28:05;100447.22;;;9.30;100.00
64616;BME280;51027;42.162;24.754;2023-02-28T03:30:51;100449.69;;;9.36;100.00
64616;BME280;51027;42.162;24.754;2023-02-28T03:33:36;100443.69;;;9.31;100.00
64616;BME280;51027;42.162;24.754;2023-02-28T03:36:10;100437.66;;;9.26;100.00
64616;BME280;51027;42.162;24.754;2023-02-28T03:39:05;100451.81;;;9.19;100.00
64616;BME280;51027;42.162;24.754;2023-02-28T03:41:42;100451.00;;;9.15;100.00
64616;BME280;51027;42.162;24.754;2023-02-28T03:44:14;100453.78;;;9.08;100.00
64616;BME280;51027;42.162;24.754;2023-02-28T03:46:46;100464.31;;;9.09;100.00
64616;BME280;51027;42.162;24.754;2023-02-28T03:49:21;100462.28;;;9.22;100.00
64616;BME280;51027;42.162;24.754;2023-02-28T03:51:48;100445.16;;;9.03;100.00
64616;BME280;51027;42.162;24.754;2023-02-28T03:54:25;100466.59;;;9.24;100.00
64616;BME280;51027;42.162;24.754;2023-02-28T03:57:02;100470.34;;;9.13;100.00
64616;BME280;51027;42.162;24.754;2023-02-28T03:59:39;100470.34;;;9.13;100.00
64616;BME280;51027;42.162;24.754;2023-02-28T04:02:07;100478.94;;;9.21;100.00
64616;BME280;51027;42.162;24.754;2023-02-28T04:04:33;100446.06;;;9.02;100.00
64616;BME280;51027;42.162;24.754;2023-02-28T04:07:07;100471.31;;;9.07;100.00
64616;BME280;51027;42.162;24.754;2023-02-28T04:09:33;100476.75;;;9.00;100.00
64616;BME280;51027;42.162;24.754;2023-02-28T04:11:59;100495.91;;;9.05;100.00
64616;BME280;51027;42.162;24.754;2023-02-28T04:14:24;100486.47;;;8.94;100.00
64616;BME280;51027;42.162;24.754;2023-02-28T04:16:50;100496.09;;;8.95;100.00
64616;BME280;51027;42.162;24.754;2023-02-28T04:19:17;100504.97;;;8.88;100.00
64616;BME280;51027;42.162;24.754;2023-02-28T04:21:45;100504.97;;;8.88;100.00
64616;BME280;51027;42.162;24.754;2023-02-28T04:24:23;100510.34;;;8.84;100.00
64616;BME280;51027;42.162;24.754;2023-02-28T04:26:51;100510.44;;;8.78;100.00
64616;BME280;51027;42.162;24.754;2023-02-28T04:29:22;100503.63;;;8.68;100.00
64616;BME280;51027;42.162;24.754;2023-02-28T04:31:48;100505.47;;;8.62;100.00
64616;BME280;51027;42.162;24.754;2023-02-28T04:34:15;100502.91;;;8.59;100.00
64616;BME280;51027;42.162;24.754;2023-02-28T04:36:40;100505.56;;;8.56;100.00
64616;BME280;51027;42.162;24.754;2023-02-28T04:39:06;100513.41;;;8.58;100.00
64616;BME280;51027;42.162;24.754;2023-02-28T04:41:32;100497.56;;;8.64;100.00
64616;BME280;51027;42.162;24.754;2023-02-28T04:43:57;100510.72;;;8.62;100.00
64616;BME280;51027;42.162;24.754;2023-02-28T04:46:23;100488.19;;;8.51;100.00
64616;BME280;51027;42.162;24.754;2023-02-28T04:48:48;100482.13;;;8.49;100.00
64616;BME280;51027;42.162;24.754;2023-02-28T04:51:15;100504.84;;;8.50;100.00
64616;BME280;51027;42.162;24.754;2023-02-28T04:53:41;100511.69;;;8.58;100.00
64616;BME280;51027;42.162;24.754;2023-02-28T04:56:09;100500.28;;;8.58;100.00
64616;BME280;51027;42.162;24.754;2023-02-28T04:58:36;100502.06;;;8.57;100.00
64616;BME280;51027;42.162;24.754;2023-02-28T05:01:07;100512.47;;;8.63;100.00
64616;BME280;51027;42.162;24.754;2023-02-28T05:03:40;100523.03;;;8.60;100.00
64616;BME280;51027;42.162;24.754;2023-02-28T05:06:07;100525.59;;;8.63;100.00
64616;BME280;51027;42.162;24.754;2023-02-28T05:08:33;100528.28;;;8.60;100.00
64616;BME280;51027;42.162;24.754;2023-02-28T05:10:59;100542.22;;;8.64;100.00
64616;BME280;51027;42.162;24.754;2023-02-28T05:13:27;100529.25;;;8.55;100.00
64616;BME280;51027;42.162;24.754;2023-02-28T05:15:53;100535.03;;;8.74;100.00
64616;BME280;51027;42.162;24.754;2023-02-28T05:18:18;100532.44;;;8.72;100.00
64616;BME280;51027;42.162;24.754;2023-02-28T05:20:44;100527.13;;;8.75;100.00
64616;BME280;51027;42.162;24.754;2023-02-28T05:23:13;100543.66;;;8.82;100.00
64616;BME280;51027;42.162;24.754;2023-02-28T05:25:39;100552.19;;;10.17;100.00
64616;BME280;51027;42.162;24.754;2023-02-28T05:28:05;100537.38;;;11.75;100.00
64616;BME280;51027;42.162;24.754;2023-02-28T05:30:31;100554.94;;;10.12;100.00
64616;BME280;51027;42.162;24.754;2023-02-28T05:32:57;100537.56;;;8.80;100.00
64616;BME280;51027;42.162;24.754;2023-02-28T05:35:23;100553.13;;;8.90;100.00
64616;BME280;51027;42.162;24.754;2023-02-28T05:37:49;100562.66;;;8.94;100.00
64616;BME280;51027;42.162;24.754;2023-02-28T05:40:15;100558.53;;;8.81;100.00
64616;BME280;51027;42.162;24.754;2023-02-28T05:42:41;100559.28;;;8.88;100.00
64616;BME280;51027;42.162;24.754;2023-02-28T05:45:07;100572.97;;;9.05;100.00
64616;BME280;51027;42.162;24.754;2023-02-28T05:47:33;100579.63;;;8.77;100.00
64616;BME280;51027;42.162;24.754;2023-02-28T05:49:59;100578.63;;;8.84;100.00
64616;BME280;51027;42.162;24.754;2023-02-28T05:52:25;100572.59;;;8.77;100.00
64616;BME280;51027;42.162;24.754;2023-02-28T05:54:50;100560.34;;;8.79;100.00
64616;BME280;51027;42.162;24.754;2023-02-28T05:57:16;100576.16;;;8.75;100.00
64616;BME280;51027;42.162;24.754;2023-02-28T05:59:41;100573.19;;;8.94;100.00
64616;BME280;51027;42.162;24.754;2023-02-28T06:02:12;100588.16;;;8.89;100.00
64616;BME280;51027;42.162;24.754;2023-02-28T06:04:37;100581.00;;;8.98;100.00
64616;BME280;51027;42.162;24.754;2023-02-28T06:07:03;100570.66;;;8.90;100.00
64616;BME280;51027;42.162;24.754;2023-02-28T06:09:28;100598.53;;;8.97;100.00
64616;BME280;51027;42.162;24.754;2023-02-28T06:11:54;100546.34;;;8.79;100.00
64616;BME280;51027;42.162;24.754;2023-02-28T06:14:20;100602.28;;;9.32;100.00
64616;BME280;51027;42.162;24.754;2023-02-28T06:16:46;100599.50;;;9.38;100.00
64616;BME280;51027;42.162;24.754;2023-02-28T06:19:11;100598.16;;;9.17;100.00
64616;BME280;51027;42.162;24.754;2023-02-28T06:21:38;100597.94;;;9.28;100.00
64616;BME280;51027;42.162;24.754;2023-02-28T06:24:04;100602.81;;;9.03;100.00
64616;BME280;51027;42.162;24.754;2023-02-28T06:26:30;100594.75;;;9.12;100.00
64616;BME280;51027;42.162;24.754;2023-02-28T06:28:56;100598.97;;;9.19;100.00
64616;BME280;51027;42.162;24.754;2023-02-28T06:31:22;100581.06;;;8.94;100.00
64616;BME280;51027;42.162;24.754;2023-02-28T06:33:48;100583.47;;;9.05;100.00
64616;BME280;51027;42.162;24.754;2023-02-28T06:36:15;100603.53;;;9.11;100.00
64616;BME280;51027;42.162;24.754;2023-02-28T06:38:41;100595.16;;;8.90;100.00
64616;BME280;51027;42.162;24.754;2023-02-28T06:41:07;100606.41;;;8.97;100.00
64616;BME280;51027;42.162;24.754;2023-02-28T06:43:36;100599.38;;;8.98;100.00
64616;BME280;51027;42.162;24.754;2023-02-28T06:46:04;100611.63;;;8.99;100.00
64616;BME280;51027;42.162;24.754;2023-02-28T06:48:29;100614.03;;;9.12;100.00
64616;BME280;51027;42.162;24.754;2023-02-28T06:51:14;100615.16;;;8.99;100.00
64616;BME280;51027;42.162;24.754;2023-02-28T06:53:40;100607.25;;;8.98;100.00
64616;BME280;51027;42.162;24.754;2023-02-28T06:56:07;100620.63;;;8.85;100.00
64616;BME280;51027;42.162;24.754;2023-02-28T06:58:33;100595.25;;;8.84;100.00
64616;BME280;51027;42.162;24.754;2023-02-28T07:00:58;100623.91;;;9.00;100.00
64616;BME280;51027;42.162;24.754;2023-02-28T07:03:24;100628.06;;;9.11;100.00
64616;BME280;51027;42.162;24.754;2023-02-28T07:05:49;100631.81;;;9.44;100.00
64616;BME280;51027;42.162;24.754;2023-02-28T07:08:16;100620.22;;;9.10;100.00
64616;BME280;51027;42.162;24.754;2023-02-28T07:10:41;100633.63;;;9.41;100.00
64616;BME280;51027;42.162;24.754;2023-02-28T07:13:07;100632.34;;;9.15;100.00
64616;BME280;51027;42.162;24.754;2023-02-28T07:15:34;100628.97;;;9.09;100.00
64616;BME280;51027;42.162;24.754;2023-02-28T07:18:00;100630.31;;;9.30;100.00
64616;BME280;51027;42.162;24.754;2023-02-28T07:20:25;100621.13;;;9.06;100.00
64616;BME280;51027;42.162;24.754;2023-02-28T07:22:51;100622.31;;;8.88;100.00
64616;BME280;51027;42.162;24.754;2023-02-28T07:25:22;100634.34;;;9.03;100.00
64616;BME280;51027;42.162;24.754;2023-02-28T07:27:48;100635.97;;;9.08;100.00
64616;BME280;51027;42.162;24.754;2023-02-28T07:30:14;100626.16;;;9.18;100.00
64616;BME280;51027;42.162;24.754;2023-02-28T07:32:40;100642.97;;;9.11;100.00
64616;BME280;51027;42.162;24.754;2023-02-28T07:35:06;100634.56;;;8.90;100.00
64616;BME280;51027;42.162;24.754;2023-02-28T07:37:31;100651.22;;;8.89;100.00
64616;BME280;51027;42.162;24.754;2023-02-28T07:40:06;100654.63;;;8.94;100.00
64616;BME280;51027;42.162;24.754;2023-02-28T07:42:34;100644.41;;;8.76;100.00
64616;BME280;51027;42.162;24.754;2023-02-28T07:45:00;100653.75;;;8.94;100.00
64616;BME280;51027;42.162;24.754;2023-02-28T07:47:25;100651.88;;;9.02;100.00
64616;BME280;51027;42.162;24.754;2023-02-28T07:49:51;100634.56;;;8.90;100.00
64616;BME280;51027;42.162;24.754;2023-02-28T07:52:16;100636.63;;;8.72;100.00
64616;BME280;51027;42.162;24.754;2023-02-28T07:54:42;100638.84;;;8.94;100.00
64616;BME280;51027;42.162;24.754;2023-02-28T07:57:07;100649.56;;;8.82;100.00
64616;BME280;51027;42.162;24.754;2023-02-28T07:59:33;100651.97;;;8.96;100.00
64616;BME280;51027;42.162;24.754;2023-02-28T08:01:58;100656.97;;;9.11;100.00
64616;BME280;51027;42.162;24.754;2023-02-28T08:04:24;100653.97;;;8.82;100.00
64616;BME280;51027;42.162;24.754;2023-02-28T08:06:50;100654.53;;;9.01;100.00
64616;BME280;51027;42.162;24.754;2023-02-28T08:09:24;100650.94;;;9.05;100.00
64616;BME280;51027;42.162;24.754;2023-02-28T08:11:51;100614.03;;;8.61;100.00
64616;BME280;51027;42.162;24.754;2023-02-28T08:14:16;100648.81;;;8.76;100.00
64616;BME280;51027;42.162;24.754;2023-02-28T08:16:41;100667.75;;;8.94;100.00
64616;BME280;51027;42.162;24.754;2023-02-28T08:19:08;100649.69;;;9.26;100.00
64616;BME280;51027;42.162;24.754;2023-02-28T08:21:34;100659.38;;;9.23;100.00
64616;BME280;51027;42.162;24.754;2023-02-28T08:23:59;100651.88;;;9.02;100.00
64616;BME280;51027;42.162;24.754;2023-02-28T08:26:25;100655.94;;;9.20;100.00
64616;BME280;51027;42.162;24.754;2023-02-28T08:28:50;100656.25;;;9.48;100.00
64616;BME280;51027;42.162;24.754;2023-02-28T08:31:16;100651.50;;;9.22;100.00
64616;BME280;51027;42.162;24.754;2023-02-28T08:33:43;100653.22;;;9.24;100.00
64616;BME280;51027;42.162;24.754;2023-02-28T08:36:10;100647.59;;;9.44;100.00
64616;BME280;51027;42.162;24.754;2023-02-28T08:38:37;100644.41;;;9.72;100.00
64616;BME280;51027;42.162;24.754;2023-02-28T08:41:05;100656.97;;;9.58;100.00
64616;BME280;51027;42.162;24.754;2023-02-28T08:43:33;100666.88;;;9.43;100.00
64616;BME280;51027;42.162;24.754;2023-02-28T08:45:59;100643.13;;;9.48;100.00
64616;BME280;51027;42.162;24.754;2023-02-28T08:48:26;100662.03;;;9.67;100.00
64616;BME280;51027;42.162;24.754;2023-02-28T08:51:02;100666.09;;;9.38;100.00
64616;BME280;51027;42.162;24.754;2023-02-28T08:53:28;100667.47;;;9.58;100.00
64616;BME280;51027;42.162;24.754;2023-02-28T08:55:59;100640.06;;;9.24;100.00
64616;BME280;51027;42.162;24.754;2023-02-28T08:58:24;100667.03;;;9.36;100.00
64616;BME280;51027;42.162;24.754;2023-02-28T09:00:50;100673.28;;;9.29;100.00
64616;BME280;51027;42.162;24.754;2023-02-28T09:03:16;100646.13;;;9.28;100.00
64616;BME280;51027;42.162;24.754;2023-02-28T09:05:58;100661.03;;;9.28;100.00
64616;BME280;51027;42.162;24.754;2023-02-28T09:08:26;100666.22;;;9.32;100.00
64616;BME280;51027;42.162;24.754;2023-02-28T09:10:52;100663.44;;;9.40;100.00
64616;BME280;51027;42.162;24.754;2023-02-28T09:13:18;100667.63;;;9.51;100.00
64616;BME280;51027;42.162;24.754;2023-02-28T09:15:44;100670.91;;;9.63;100.00
64616;BME280;51027;42.162;24.754;2023-02-28T09:18:10;100670.44;;;9.41;100.00
64616;BME280;51027;42.162;24.754;2023-02-28T09:20:39;100668.34;;;9.58;100.00
64616;BME280;51027;42.162;24.754;2023-02-28T09:23:06;100664.78;;;9.62;100.00
64616;BME280;51027;42.162;24.754;2023-02-28T09:25:31;100653.34;;;9.63;100.00
64616;BME280;51027;42.162;24.754;2023-02-28T09:27:57;100662.88;;;9.69;100.00
64616;BME280;51027;42.162;24.754;2023-02-28T09:30:22;100644.16;;;9.84;100.00
64616;BME280;51027;42.162;24.754;2023-02-28T09:32:47;100622.28;;;9.80;100.00
64616;BME280;51027;42.162;24.754;2023-02-28T09:35:18;100640.31;;;9.99;100.00
64616;BME280;51027;42.162;24.754;2023-02-28T09:37:43;100648.91;;;9.65;100.00
64616;BME280;51027;42.162;24.754;2023-02-28T09:40:10;100649.03;;;9.61;100.00
64616;BME280;51027;42.162;24.754;2023-02-28T09:42:36;100637.84;;;9.48;100.00
64616;BME280;51027;42.162;24.754;2023-02-28T09:45:16;100638.41;;;9.65;100.00
64616;BME280;51027;42.162;24.754;2023-02-28T09:47:46;100633.63;;;9.41;100.00
64616;BME280;51027;42.162;24.754;2023-02-28T09:53:02;100650.59;;;9.24;100.00
64616;BME280;51027;42.162;24.754;2023-02-28T09:55:39;100647.47;;;9.03;100.00
64616;BME280;51027;42.162;24.754;2023-02-28T09:58:05;100643.56;;;9.25;100.00
64616;BME280;51027;42.162;24.754;2023-02-28T10:00:40;100642.03;;;9.13;100.00
64616;BME280;51027;42.162;24.754;2023-02-28T10:08:38;100613.06;;;9.60;100.00
64616;BME280;51027;42.162;24.754;2023-02-28T10:11:10;100602.34;;;9.27;100.00
64616;BME280;51027;42.162;24.754;2023-02-28T10:24:48;100609.69;;;9.96;100.00
64616;BME280;51027;42.162;24.754;2023-02-28T10:27:21;100607.41;;;9.81;100.00
64616;BME280;51027;42.162;24.754;2023-02-28T10:29:50;100594.09;;;9.87;100.00
64616;BME280;51027;42.162;24.754;2023-02-28T10:32:22;100592.91;;;9.62;100.00
64616;BME280;51027;42.162;24.754;2023-02-28T10:34:55;100602.44;;;9.66;100.00
64616;BME280;51027;42.162;24.754;2023-02-28T10:37:22;100593.22;;;9.45;100.00
64616;BME280;51027;42.162;24.754;2023-02-28T10:39:47;100597.22;;;9.64;100.00
64616;BME280;51027;42.162;24.754;2023-02-28T10:42:25;100586.53;;;9.70;100.00
64616;BME280;51027;42.162;24.754;2023-02-28T10:45:16;100601.75;;;9.56;100.00
64616;BME280;51027;42.162;24.754;2023-02-28T10:47:57;100601.97;;;9.45;100.00
64616;BME280;51027;42.162;24.754;2023-02-28T10:52:54;100587.09;;;9.44;100.00
64616;BME280;51027;42.162;24.754;2023-02-28T10:55:23;100588.59;;;9.58;100.00
64616;BME280;51027;42.162;24.754;2023-02-28T10:57:51;100578.72;;;9.67;100.00
64616;BME280;51027;42.162;24.754;2023-02-28T11:00:22;100582.94;;;9.34;100.00
64616;BME280;51027;42.162;24.754;2023-02-28T11:02:48;100563.91;;;9.21;100.00
64616;BME280;51027;42.162;24.754;2023-02-28T11:05:34;100564.16;;;9.09;100.00
64616;BME280;51027;42.162;24.754;2023-02-28T11:08:14;100579.25;;;9.43;100.00
64616;BME280;51027;42.162;24.754;2023-02-28T11:10:45;100583.38;;;9.11;100.00
64616;BME280;51027;42.162;24.754;2023-02-28T11:13:20;100587.00;;;9.04;100.00
64616;BME280;51027;42.162;24.754;2023-02-28T11:15:55;100574.94;;;8.94;100.00
64616;BME280;51027;42.162;24.754;2023-02-28T11:18:28;100575.22;;;8.79;100.00
64616;BME280;51027;42.162;24.754;2023-02-28T11:20:56;100569.88;;;8.83;100.00
64616;BME280;51027;42.162;24.754;2023-02-28T11:23:25;100558.25;;;8.97;100.00
64616;BME280;51027;42.162;24.754;2023-02-28T11:25:52;100576.97;;;8.78;100.00
64616;BME280;51027;42.162;24.754;2023-02-28T11:28:34;100579.25;;;8.97;100.00
64616;BME280;51027;42.162;24.754;2023-02-28T11:31:05;100561.91;;;9.34;100.00
64616;BME280;51027;42.162;24.754;2023-02-28T11:33:40;100579.81;;;9.14;100.00
64616;BME280;51027;42.162;24.754;2023-02-28T11:36:21;100576.97;;;8.78;100.00
64616;BME280;51027;42.162;24.754;2023-02-28T11:38:50;100570.84;;;8.79;100.00
64616;BME280;51027;42.162;24.754;2023-02-28T11:54:54;100560.38;;;8.76;100.00
64616;BME280;51027;42.162;24.754;2023-02-28T12:05:39;100561.25;;;8.75;100.00
64616;BME280;51027;42.162;24.754;2023-02-28T12:18:47;100541.75;;;8.41;100.00
64616;BME280;51027;42.162;24.754;2023-02-28T12:26:32;100552.56;;;9.18;100.00
64616;BME280;51027;42.162;24.754;2023-02-28T12:29:09;100553.16;;;8.87;100.00
64616;BME280;51027;42.162;24.754;2023-02-28T12:31:38;100547.34;;;8.72;100.00
64616;BME280;51027;42.162;24.754;2023-02-28T12:34:10;100548.06;;;8.78;100.00
64616;BME280;51027;42.162;24.754;2023-02-28T12:36:37;100545.44;;;8.80;100.00
64616;BME280;51027;42.162;24.754;2023-02-28T12:39:26;100540.28;;;8.74;100.00
64616;BME280;51027;42.162;24.754;2023-02-28T12:44:30;100538.72;;;8.63;100.00
64616;BME280;51027;42.162;24.754;2023-02-28T12:47:02;100522.50;;;8.88;100.00
64616;BME280;51027;42.162;24.754;2023-02-28T12:52:13;100532.00;;;8.95;100.00
64616;BME280;51027;42.162;24.754;2023-02-28T12:54:50;100533.06;;;8.85;100.00
64616;BME280;51027;42.162;24.754;2023-02-28T12:57:31;100520.47;;;8.56;100.00
64616;BME280;51027;42.162;24.754;2023-02-28T13:00:20;100537.88;;;8.61;100.00
64616;BME280;51027;42.162;24.754;2023-02-28T13:10:52;100533.50;;;8.62;100.00
64616;BME280;51027;42.162;24.754;2023-02-28T13:13:26;100532.44;;;8.72;100.00
64616;BME280;51027;42.162;24.754;2023-02-28T13:16:07;100538.25;;;8.88;100.00
64616;BME280;51027;42.162;24.754;2023-02-28T13:18:34;100526.28;;;8.73;100.00
64616;BME280;51027;42.162;24.754;2023-02-28T13:21:03;100510.44;;;8.79;100.00
64616;BME280;51027;42.162;24.754;2023-02-28T13:26:04;100527.94;;;8.79;100.00
64616;BME280;51027;42.162;24.754;2023-02-28T13:31:18;100524.47;;;8.77;100.00
64616;BME280;51027;42.162;24.754;2023-02-28T13:38:43;100520.38;;;8.62;100.00
64616;BME280;51027;42.162;24.754;2023-02-28T13:44:20;100520.06;;;8.77;100.00
64616;BME280;51027;42.162;24.754;2023-02-28T13:49:25;100516.91;;;8.60;100.00
64616;BME280;51027;42.162;24.754;2023-02-28T13:52:07;100519.91;;;8.39;100.00
64616;BME280;51027;42.162;24.754;2023-02-28T14:00:35;100511.09;;;8.43;100.00
64616;BME280;51027;42.162;24.754;2023-02-28T14:03:38;100518.88;;;8.49;100.00
64616;BME280;51027;42.162;24.754;2023-02-28T14:11:34;100521.53;;;8.46;100.00
64616;BME280;51027;42.162;24.754;2023-02-28T14:14:01;100521.31;;;8.59;100.00
64616;BME280;51027;42.162;24.754;2023-02-28T14:16:39;100521.28;;;8.61;100.00
64616;BME280;51027;42.162;24.754;2023-02-28T14:19:22;100530.03;;;8.60;100.00
64616;BME280;51027;42.162;24.754;2023-02-28T14:38:21;100535.28;;;8.60;100.00
64616;BME280;51027;42.162;24.754;2023-02-28T14:40:51;100524.75;;;8.61;100.00
64616;BME280;51027;42.162;24.754;2023-02-28T14:43:25;100520.16;;;8.73;100.00
64616;BME280;51027;42.162;24.754;2023-02-28T14:45:54;100522.03;;;8.66;100.00
64616;BME280;51027;42.162;24.754;2023-02-28T14:48:21;100503.84;;;8.55;100.00
64616;BME280;51027;42.162;24.754;2023-02-28T14:50:51;100533.22;;;8.77;100.00
64616;BME280;51027;42.162;24.754;2023-02-28T14:53:20;100536.44;;;8.93;100.00
64616;BME280;51027;42.162;24.754;2023-02-28T14:55:47;100531.47;;;8.76;100.00
64616;BME280;51027;42.162;24.754;2023-02-28T15:00:48;100551.53;;;8.82;100.00
64616;BME280;51027;42.162;24.754;2023-02-28T15:03:30;100534.34;;;8.64;100.00
64616;BME280;51027;42.162;24.754;2023-02-28T15:06:13;100551.72;;;8.71;100.00
64616;BME280;51027;42.162;24.754;2023-02-28T15:08:38;100542.41;;;8.53;100.00
64616;BME280;51027;42.162;24.754;2023-02-28T15:11:11;100555.78;;;8.40;100.00
64616;BME280;51027;42.162;24.754;2023-02-28T15:13:49;100556.22;;;8.63;100.00
64616;BME280;51027;42.162;24.754;2023-02-28T15:16:45;100559.66;;;8.66;100.00
64616;BME280;51027;42.162;24.754;2023-02-28T15:19:27;100563.75;;;8.83;100.00